Time;durP1;ratioP1;P1;durP2;ratioP2;P2;SDS_P1;SDS_P2;PMS_P1;PMS_P2;Temp;Humidity;BMP_temperature;BMP_pressure;BME280_temperature;BME280_humidity;BME280_pressure;Samples;Min_cycle;Max_cycle;Signal;HPM_P1;HPM_P2
2023/06/29 00:00:28;;;;;;;1.73;1.30;;;;;;;19.00;64.93;95593.22;4323353;32;20220;-59
2023/06/29 00:02:54;;;;;;;1.10;1.10;;;;;;;19.11;64.59;95597.00;4301114;32;20287;-59
2023/06/29 00:05:21;;;;;;;0.83;0.83;;;;;;;18.86;64.79;95595.50;4330716;32;20194;-59
2023/06/29 00:07:48;;;;;;;1.20;0.77;;;;;;;18.90;64.94;95587.53;4280591;32;20385;-59
2023/06/29 00:10:14;;;;;;;0.40;0.40;;;;;;;18.90;66.22;95598.28;4317964;32;20216;-59
2023/06/29 00:12:41;;;;;;;0.87;0.87;;;;;;;19.05;65.46;95589.50;4342991;32;20261;-59
2023/06/29 00:15:09;;;;;;;0.50;0.50;;;;;;;19.07;66.01;95588.06;4289675;32;20202;-58
2023/06/29 00:17:36;;;;;;;0.90;0.70;;;;;;;19.05;64.82;95582.22;4308392;32;20204;-59
2023/06/29 00:20:12;;;;;;;1.13;0.87;;;;;;;18.97;65.36;95585.81;4334740;32;20236;-59
2023/06/29 00:22:40;;;;;;;0.80;0.80;;;;;;;18.87;64.92;95575.56;4311144;32;20189;-59
2023/06/29 00:25:08;;;;;;;0.50;0.50;;;;;;;18.62;65.64;95574.81;4318380;32;20245;-59
2023/06/29 00:27:35;;;;;;;1.97;0.90;;;;;;;18.55;66.32;95578.03;4335426;32;20305;-59
2023/06/29 00:30:01;;;;;;;0.90;0.90;;;;;;;18.86;66.41;95572.09;4309118;32;20194;-59
2023/06/29 00:32:27;;;;;;;2.07;0.70;;;;;;;18.88;65.67;95577.12;4336245;32;20224;-59
2023/06/29 00:34:54;;;;;;;0.83;0.60;;;;;;;18.83;65.22;95566.59;4317631;32;20201;-59
2023/06/29 00:37:20;;;;;;;0.33;0.33;;;;;;;18.82;65.96;95575.78;4315793;32;20311;-58
2023/06/29 00:39:47;;;;;;;2.40;1.47;;;;;;;18.58;65.86;95573.88;4303248;32;20346;-59
2023/06/29 00:42:12;;;;;;;0.80;0.80;;;;;;;18.74;66.89;95577.47;4320181;32;20209;-59
2023/06/29 00:44:40;;;;;;;0.70;0.70;;;;;;;18.71;65.87;95574.66;4326737;32;20219;-59
2023/06/29 00:47:08;;;;;;;1.60;0.93;;;;;;;18.86;66.24;95563.22;4289177;32;20201;-59
2023/06/29 00:49:38;;;;;;;1.20;0.63;;;;;;;18.51;65.88;95565.59;4313790;32;20205;-59
2023/06/29 00:52:06;;;;;;;1.63;0.90;;;;;;;18.36;66.68;95561.69;4331358;32;20197;-59
2023/06/29 00:54:32;;;;;;;1.77;1.07;;;;;;;18.35;66.56;95570.88;4325233;32;20276;-59
2023/06/29 00:56:59;;;;;;;1.43;0.60;;;;;;;18.58;66.73;95567.72;4339910;32;20185;-59
2023/06/29 00:59:26;;;;;;;0.60;0.60;;;;;;;18.53;67.52;95557.97;4334811;32;20275;-59
2023/06/29 01:01:53;;;;;;;0.40;0.40;;;;;;;18.60;65.92;95565.50;4325975;32;20228;-59
2023/06/29 01:04:24;;;;;;;0.40;0.40;;;;;;;18.28;66.55;95573.34;4324725;32;20193;-59
2023/06/29 01:07:26;;;;;;;0.63;0.63;;;;;;;18.49;67.84;95565.97;4313960;32;20259;-59
2023/06/29 01:09:55;;;;;;;0.77;0.67;;;;;;;18.55;66.45;95563.81;4297016;32;20193;-59
2023/06/29 01:12:21;;;;;;;0.20;0.20;;;;;;;18.56;66.37;95562.69;4325567;32;20208;-59
2023/06/29 01:14:50;;;;;;;0.50;0.50;;;;;;;18.66;66.19;95564.94;4287885;33;20261;-59
2023/06/29 01:17:22;;;;;;;0.30;0.30;;;;;;;18.71;66.55;95553.94;4323165;32;20294;-59
2023/06/29 01:19:55;;;;;;;0.37;0.37;;;;;;;18.48;65.70;95556.31;4331095;32;20194;-59
2023/06/29 01:22:35;;;;;;;2.13;1.30;;;;;;;18.72;66.53;95552.81;4295379;32;20279;-59
2023/06/29 01:25:06;;;;;;;0.80;0.80;;;;;;;18.71;65.32;95550.47;4323337;32;20250;-59
2023/06/29 01:27:37;;;;;;;0.97;0.97;;;;;;;18.87;67.26;95549.44;4312541;32;20208;-59
2023/06/29 01:30:04;;;;;;;1.07;0.90;;;;;;;18.83;66.08;95547.78;4308662;32;20296;-59
2023/06/29 01:32:37;;;;;;;1.37;0.73;;;;;;;18.55;65.72;95548.47;4281271;32;20202;-59
2023/06/29 01:35:07;;;;;;;0.63;0.63;;;;;;;18.55;66.43;95548.47;4312582;32;20233;-59
2023/06/29 01:38:08;;;;;;;2.77;1.63;;;;;;;18.34;nan;95550.50;4318257;32;20206;-59
2023/06/29 01:40:51;;;;;;;1.50;0.80;;;;;;;18.44;66.67;95535.84;4324453;32;20208;-59
2023/06/29 01:43:19;;;;;;;0.57;0.57;;;;;;;18.10;67.34;95543.22;4329692;32;20293;-59
2023/06/29 01:45:47;;;;;;;1.73;1.03;;;;;;;18.17;66.87;95537.31;4330358;32;20212;-59
2023/06/29 01:48:13;;;;;;;0.80;0.80;;;;;;;18.58;68.63;95540.84;4317141;32;20198;-59
2023/06/29 01:50:42;;;;;;;3.97;0.90;;;;;;;18.41;66.74;95536.50;4321572;32;20185;-59
2023/06/29 01:53:11;;;;;;;0.47;0.47;;;;;;;18.65;67.56;95536.50;4323870;32;20200;-59
2023/06/29 01:55:37;;;;;;;0.50;0.50;;;;;;;18.55;66.98;95528.88;4322012;32;20202;-59
2023/06/29 01:58:05;;;;;;;0.53;0.53;;;;;;;18.60;66.94;95525.19;4321292;32;20235;-59
2023/06/29 02:00:31;;;;;;;0.90;0.90;;;;;;;18.34;66.84;95526.31;4327509;32;20212;-59
2023/06/29 02:02:57;;;;;;;0.67;0.67;;;;;;;18.49;67.01;95522.19;4327969;32;20236;-59
2023/06/29 02:05:33;;;;;;;0.47;0.47;;;;;;;18.29;66.80;95529.22;4322115;32;20198;-60
2023/06/29 02:08:00;;;;;;;1.17;1.17;;;;;;;18.16;66.86;95528.47;4328879;32;20202;-59
2023/06/29 02:10:26;;;;;;;0.87;0.70;;;;;;;18.31;67.41;95527.00;4312216;32;20181;-59
2023/06/29 02:12:51;;;;;;;0.40;0.40;;;;;;;18.55;67.75;95523.50;4299202;32;20185;-59
2023/06/29 02:15:18;;;;;;;0.97;0.97;;;;;;;18.32;66.74;95527.78;4334758;32;20232;-59
2023/06/29 02:17:45;;;;;;;0.30;0.30;;;;;;;18.08;67.26;95525.91;4329609;32;20212;-59
2023/06/29 02:20:10;;;;;;;0.70;0.70;;;;;;;18.44;68.36;95527.78;4320967;32;20211;-58
2023/06/29 02:22:38;;;;;;;0.60;0.60;;;;;;;18.32;66.69;95517.03;4342403;32;20193;-57
2023/06/29 02:25:10;;;;;;;0.33;0.33;;;;;;;18.50;67.29;95524.50;4334026;32;20267;-58
2023/06/29 02:27:36;;;;;;;0.90;0.90;;;;;;;18.60;66.40;95522.50;4324512;32;20227;-58
2023/06/29 02:30:04;;;;;;;0.30;0.30;;;;;;;18.42;66.39;95528.13;4344169;32;20224;-58
2023/06/29 02:32:29;;;;;;;0.40;0.40;;;;;;;18.33;67.09;95518.59;4304792;32;20257;-58
2023/06/29 02:34:54;;;;;;;0.50;0.50;;;;;;;18.21;66.98;95522.09;4327699;32;20194;-58
2023/06/29 02:37:21;;;;;;;0.67;0.67;;;;;;;18.06;67.28;95525.44;4342081;32;20189;-57
2023/06/29 02:39:48;;;;;;;0.43;0.43;;;;;;;18.08;66.98;95518.59;4312869;32;20292;-58
2023/06/29 02:42:14;;;;;;;2.30;1.20;;;;;;;17.91;67.68;95515.34;4358420;32;20211;-58
2023/06/29 02:44:41;;;;;;;0.40;0.40;;;;;;;18.34;68.72;95515.56;4333589;32;20264;-58
2023/06/29 02:47:08;;;;;;;0.77;0.77;;;;;;;18.20;68.47;95510.56;4317536;32;20247;-58
2023/06/29 02:49:34;;;;;;;1.03;1.03;;;;;;;18.47;68.41;95506.41;4333005;32;20185;-58
2023/06/29 02:51:59;;;;;;;4.43;0.97;;;;;;;18.29;66.95;95506.97;4329538;32;20193;-59
2023/06/29 02:54:25;;;;;;;0.83;0.83;;;;;;;18.00;67.15;95508.78;4334215;32;20264;-58
2023/06/29 02:56:52;;;;;;;0.23;0.23;;;;;;;18.34;68.20;95507.50;4318149;32;20213;-58
2023/06/29 02:59:22;;;;;;;0.40;0.40;;;;;;;18.34;67.40;95502.16;4335301;32;20181;-58
2023/06/29 03:01:50;;;;;;;0.50;0.50;;;;;;;18.15;66.81;95508.09;4336517;32;20186;-58
2023/06/29 03:04:16;;;;;;;0.67;0.67;;;;;;;18.19;67.32;95503.63;4282281;33;20202;-58
2023/06/29 03:06:43;;;;;;;0.80;0.80;;;;;;;18.25;67.14;95508.78;4330558;32;20237;-58
2023/06/29 03:09:10;;;;;;;1.47;1.37;;;;;;;18.15;67.24;95512.69;4289949;32;20189;-58
2023/06/29 03:11:39;;;;;;;2.23;0.50;;;;;;;18.24;68.59;95507.22;4335160;32;20196;-57
2023/06/29 03:14:05;;;;;;;0.57;0.57;;;;;;;18.28;67.38;95505.41;4337722;32;20202;-57
2023/06/29 03:16:31;;;;;;;0.60;0.60;;;;;;;17.95;66.84;95513.56;4327181;32;20277;-58
2023/06/29 03:19:01;;;;;;;0.63;0.63;;;;;;;18.23;68.84;95503.72;4342493;32;20193;-60
2023/06/29 03:21:26;;;;;;;0.30;0.30;;;;;;;18.08;66.64;95504.41;4339805;32;20185;-60
2023/06/29 03:23:53;;;;;;;0.70;0.70;;;;;;;18.08;68.26;95501.75;4343329;32;20204;-58
2023/06/29 03:26:21;;;;;;;0.63;0.63;;;;;;;17.97;67.13;95503.28;4326082;32;20189;-58
2023/06/29 03:28:48;;;;;;;1.13;1.03;;;;;;;17.97;67.51;95505.97;4343447;32;20331;-57
2023/06/29 03:31:15;;;;;;;0.53;0.53;;;;;;;18.03;68.05;95499.28;4329384;32;20200;-57
2023/06/29 03:33:47;;;;;;;0.47;0.47;;;;;;;17.87;67.98;95497.22;4347310;32;20210;-58
2023/06/29 03:36:13;;;;;;;0.70;0.70;;;;;;;17.80;68.16;95505.06;4346662;32;20225;-58
2023/06/29 03:38:40;;;;;;;0.33;0.33;;;;;;;17.93;68.09;95513.13;4336449;32;20283;-58
2023/06/29 03:41:08;;;;;;;0.67;0.67;;;;;;;17.83;68.10;95509.78;4320523;32;20189;-58
2023/06/29 03:43:34;;;;;;;0.80;0.80;;;;;;;17.76;68.49;95506.84;4325637;32;20208;-58
2023/06/29 03:46:01;;;;;;;1.23;1.13;;;;;;;17.43;68.83;95511.47;4293537;32;20221;-58
2023/06/29 03:48:29;;;;;;;0.67;0.67;;;;;;;17.60;69.23;95513.19;4329211;32;20248;-58
2023/06/29 03:50:58;;;;;;;0.53;0.53;;;;;;;17.67;68.62;95511.53;4350825;32;20250;-58
2023/06/29 03:53:24;;;;;;;1.30;0.83;;;;;;;17.82;68.74;95505.53;4327513;32;20209;-58
2023/06/29 03:55:52;;;;;;;0.60;0.60;;;;;;;17.73;68.45;95506.75;4326811;32;20359;-57
2023/06/29 03:58:18;;;;;;;0.33;0.33;;;;;;;17.91;68.67;95501.94;4339988;32;20314;-58
2023/06/29 04:00:44;;;;;;;1.27;0.67;;;;;;;17.47;68.53;95515.81;4328681;32;20193;-58
2023/06/29 04:03:11;;;;;;;3.80;1.20;;;;;;;17.67;69.52;95508.06;4319404;32;20194;-57
2023/06/29 04:05:36;;;;;;;1.40;0.63;;;;;;;17.74;68.78;95514.44;4279886;32;20234;-57
2023/06/29 04:08:06;;;;;;;0.50;0.50;;;;;;;17.64;68.75;95504.16;4321813;32;20251;-58
2023/06/29 04:10:32;;;;;;;2.03;0.80;;;;;;;17.51;68.98;95506.00;4338463;32;20292;-58
2023/06/29 04:13:00;;;;;;;0.43;0.43;;;;;;;17.67;68.64;95500.00;4337501;32;20194;-57
2023/06/29 04:15:27;;;;;;;0.80;0.80;;;;;;;17.70;68.47;95500.12;4341573;32;20193;-59
2023/06/29 04:17:54;;;;;;;0.67;0.67;;;;;;;17.58;68.45;95494.72;4332217;32;20193;-58
2023/06/29 04:20:23;;;;;;;0.70;0.70;;;;;;;17.50;68.93;95501.75;4330818;32;20282;-58
2023/06/29 04:22:51;;;;;;;0.40;0.40;;;;;;;17.56;69.17;95496.97;4334393;32;20244;-58
2023/06/29 04:25:17;;;;;;;0.40;0.40;;;;;;;17.47;69.32;95509.66;4338147;32;20197;-58
2023/06/29 04:27:44;;;;;;;1.13;0.67;;;;;;;17.54;69.54;95504.56;4344022;32;20251;-58
2023/06/29 04:30:11;;;;;;;0.93;0.93;;;;;;;17.77;69.44;95497.69;4335972;32;20211;-58
2023/06/29 04:32:39;;;;;;;0.60;0.60;;;;;;;17.62;68.69;95498.31;4343737;32;20218;-57
2023/06/29 04:35:09;;;;;;;1.27;1.20;;;;;;;17.78;70.19;95499.25;4319040;32;20264;-58
2023/06/29 04:37:40;;;;;;;0.67;0.67;;;;;;;17.64;68.80;95498.81;4348181;32;20193;-58
2023/06/29 04:40:14;;;;;;;0.60;0.60;;;;;;;17.81;68.66;95497.81;4318716;32;20189;-58
2023/06/29 04:42:47;;;;;;;0.73;0.73;;;;;;;17.89;67.94;95498.81;4335099;32;20202;-58
2023/06/29 04:45:19;;;;;;;0.80;0.80;;;;;;;18.15;70.03;95491.19;4323564;32;20244;-57
2023/06/29 04:47:49;;;;;;;0.83;0.83;;;;;;;17.96;67.62;95489.09;4274690;32;20269;-58
2023/06/29 04:50:15;;;;;;;1.60;0.80;;;;;;;18.02;67.83;95486.97;4292512;32;20205;-59
2023/06/29 04:52:42;;;;;;;0.57;0.57;;;;;;;18.14;67.65;95479.66;4321151;32;20309;-58
2023/06/29 04:55:15;;;;;;;0.90;0.90;;;;;;;18.12;66.95;95479.22;4334156;32;20201;-58
2023/06/29 04:57:43;;;;;;;0.80;0.80;;;;;;;18.32;67.41;95487.47;4313727;32;20238;-57
2023/06/29 05:00:11;;;;;;;0.60;0.60;;;;;;;18.24;67.59;95480.34;4335876;32;20204;-57
2023/06/29 05:02:40;;;;;;;0.33;0.33;;;;;;;18.02;67.33;95478.91;4325577;32;20259;-58
2023/06/29 05:05:11;;;;;;;1.13;0.93;;;;;;;18.03;67.08;95483.16;4323086;32;20220;-58
2023/06/29 05:07:40;;;;;;;1.70;0.87;;;;;;;18.04;67.97;95479.34;4333419;32;20217;-58
2023/06/29 05:10:07;;;;;;;0.80;0.77;;;;;;;18.09;67.80;95484.47;4343288;32;20244;-57
2023/06/29 05:12:33;;;;;;;0.50;0.50;;;;;;;18.24;68.01;95475.75;4337694;32;20246;-59
2023/06/29 05:14:59;;;;;;;0.77;0.60;;;;;;;18.34;67.80;95477.97;4335112;32;20202;-59
2023/06/29 05:17:26;;;;;;;1.00;1.00;;;;;;;18.28;66.64;95470.50;4337474;32;20198;-58
2023/06/29 05:19:51;;;;;;;2.63;0.87;;;;;;;18.36;66.11;95469.56;4328751;32;20181;-58
2023/06/29 05:22:18;;;;;;;0.77;0.77;;;;;;;18.18;66.51;95474.41;4350664;32;20200;-58
2023/06/29 05:24:44;;;;;;;0.47;0.47;;;;;;;18.15;66.79;95472.41;4341112;32;20270;-58
2023/06/29 05:27:10;;;;;;;0.40;0.40;;;;;;;18.28;66.92;95479.34;4322602;32;20197;-58
2023/06/29 05:29:38;;;;;;;0.53;0.53;;;;;;;18.30;66.67;95473.59;4300031;32;20289;-58
2023/06/29 05:32:04;;;;;;;1.27;1.13;;;;;;;18.37;66.41;95479.19;4321271;32;20255;-58
2023/06/29 05:34:30;;;;;;;0.57;0.57;;;;;;;18.42;67.57;95482.44;4329421;32;20205;-59
2023/06/29 05:36:58;;;;;;;0.70;0.70;;;;;;;18.41;67.16;95478.19;4348427;32;20235;-57
2023/06/29 05:39:25;;;;;;;0.90;0.90;;;;;;;18.43;66.30;95477.84;4324158;32;20340;-58
2023/06/29 05:41:52;;;;;;;0.60;0.60;;;;;;;18.46;67.25;95472.59;4349631;32;20181;-58
2023/06/29 05:44:18;;;;;;;2.17;0.60;;;;;;;18.62;66.75;95477.28;4350948;32;20188;-58
2023/06/29 05:46:45;;;;;;;0.60;0.60;;;;;;;18.69;65.79;95477.50;4331891;32;20237;-58
2023/06/29 05:49:10;;;;;;;5.60;2.67;;;;;;;18.74;65.58;95479.91;4324554;32;20213;-59
2023/06/29 05:51:37;;;;;;;0.83;0.83;;;;;;;19.00;68.17;95472.19;4342325;32;20193;-58
2023/06/29 05:54:04;;;;;;;1.40;0.80;;;;;;;18.96;64.62;95471.31;4335745;32;20229;-58
2023/06/29 05:56:31;;;;;;;1.00;1.00;;;;;;;19.09;65.20;95464.78;4333825;32;20182;-59
2023/06/29 05:58:58;;;;;;;0.73;0.73;;;;;;;19.09;64.62;95467.47;4350457;32;20203;-60
2023/06/29 06:01:24;;;;;;;5.93;1.13;;;;;;;18.92;64.58;95475.03;4311183;32;20208;-58
2023/06/29 06:03:51;;;;;;;0.50;0.50;;;;;;;18.98;65.11;95474.44;4324494;32;20324;-58
2023/06/29 06:06:18;;;;;;;4.53;0.80;;;;;;;19.03;65.07;95465.34;4326106;32;20291;-58
2023/06/29 06:08:43;;;;;;;1.37;1.20;;;;;;;18.98;65.04;95463.69;4339221;32;20232;-59
2023/06/29 06:11:09;;;;;;;0.50;0.50;;;;;;;19.40;65.74;95474.00;4325024;32;20249;-59
2023/06/29 06:13:37;;;;;;;0.40;0.40;;;;;;;19.52;65.14;95466.69;4327551;32;20193;-59
2023/06/29 06:16:04;;;;;;;0.40;0.40;;;;;;;19.53;64.79;95467.47;4330699;32;20197;-58
2023/06/29 06:18:30;;;;;;;0.87;0.67;;;;;;;19.73;64.85;95461.06;4303642;32;20193;-58
2023/06/29 06:20:57;;;;;;;0.50;0.50;;;;;;;19.70;62.57;95464.44;4341916;32;20182;-58
2023/06/29 06:23:27;;;;;;;0.50;0.50;;;;;;;19.57;64.16;95462.94;4320073;32;20190;-58
2023/06/29 06:25:54;;;;;;;0.47;0.43;;;;;;;19.51;64.40;95462.44;4309881;32;20204;-58
2023/06/29 06:28:22;;;;;;;0.80;0.80;;;;;;;19.55;65.20;95462.50;4341100;32;20193;-57
2023/06/29 06:30:49;;;;;;;0.73;0.70;;;;;;;19.69;64.39;95465.56;4323052;32;20273;-58
2023/06/29 06:33:20;;;;;;;0.60;0.60;;;;;;;19.70;66.42;95464.44;4311936;32;20201;-58
2023/06/29 06:35:47;;;;;;;0.80;0.80;;;;;;;19.72;64.15;95461.41;4335561;32;20197;-58
2023/06/29 06:38:15;;;;;;;1.33;1.23;;;;;;;19.96;63.23;95458.50;4325408;32;20236;-58
2023/06/29 06:40:43;;;;;;;0.77;0.77;;;;;;;19.97;65.38;95453.88;4316261;32;20215;-60
2023/06/29 06:43:08;;;;;;;1.07;0.87;;;;;;;19.97;64.62;95453.88;4322848;32;20197;-57
2023/06/29 06:45:35;;;;;;;0.60;0.60;;;;;;;20.21;61.67;95459.84;4330574;32;20252;-58
2023/06/29 06:48:01;;;;;;;0.80;0.80;;;;;;;20.38;59.55;95456.00;4353438;32;20225;-58
2023/06/29 06:50:29;;;;;;;0.67;0.67;;;;;;;20.37;63.07;95451.00;4338026;32;20209;-59
2023/06/29 06:52:55;;;;;;;0.83;0.83;;;;;;;20.48;60.01;95452.78;4326029;32;20193;-58
2023/06/29 06:55:21;;;;;;;0.40;0.40;;;;;;;20.55;60.82;95446.75;4318620;32;20272;-58
2023/06/29 06:57:47;;;;;;;0.73;0.73;;;;;;;20.70;60.28;95445.13;4336822;32;20291;-58
2023/06/29 07:00:14;;;;;;;0.40;0.40;;;;;;;20.67;61.50;95454.69;4350382;32;20233;-58
2023/06/29 07:02:41;;;;;;;0.10;0.10;;;;;;;20.80;57.82;95450.72;4325626;32;20241;-58
2023/06/29 07:05:08;;;;;;;0.40;0.40;;;;;;;20.97;58.58;95446.84;4341451;32;20264;-58
2023/06/29 07:07:35;;;;;;;0.60;0.60;;;;;;;21.00;58.71;95450.72;4322652;32;20267;-60
2023/06/29 07:10:01;;;;;;;0.67;0.67;;;;;;;21.14;58.19;95446.38;4357495;32;20189;-60
2023/06/29 07:12:29;;;;;;;0.53;0.40;;;;;;;21.26;55.63;95440.84;4335924;32;20193;-60
2023/06/29 07:14:54;;;;;;;0.67;0.67;;;;;;;21.32;55.11;95445.94;4330266;32;20193;-60
2023/06/29 07:17:21;;;;;;;0.50;0.50;;;;;;;21.40;56.28;95448.44;4354239;32;20197;-60
2023/06/29 07:19:46;;;;;;;0.20;0.20;;;;;;;21.44;55.67;95443.06;4323527;32;20209;-60
2023/06/29 07:22:12;;;;;;;0.60;0.60;;;;;;;21.51;55.49;95445.91;4340485;32;20185;-60
2023/06/29 07:24:42;;;;;;;0.47;0.40;;;;;;;21.56;54.85;95435.59;4338430;32;20194;-60
2023/06/29 07:27:09;;;;;;;0.37;0.37;;;;;;;21.59;53.59;95436.78;4312089;32;20203;-60
2023/06/29 07:29:35;;;;;;;0.33;0.33;;;;;;;21.64;52.06;95439.16;4359883;32;20249;-60
2023/06/29 07:32:02;;;;;;;0.40;0.40;;;;;;;21.73;51.92;95434.31;4340852;32;20204;-60
2023/06/29 07:34:32;;;;;;;0.60;0.60;;;;;;;21.79;52.77;95440.97;4346243;32;20234;-59
2023/06/29 07:37:00;;;;;;;1.90;0.50;;;;;;;21.84;52.31;95435.25;4332746;32;20242;-60
2023/06/29 07:39:27;;;;;;;0.43;0.43;;;;;;;21.92;50.21;95436.94;4338772;32;20193;-60
2023/06/29 07:41:53;;;;;;;0.30;0.30;;;;;;;21.93;52.62;95427.69;4342611;32;20201;-60
2023/06/29 07:44:20;;;;;;;1.70;1.27;;;;;;;21.92;52.10;95426.13;4339876;32;20225;-60
2023/06/29 07:46:47;;;;;;;0.60;0.60;;;;;;;21.93;51.38;95426.91;4344883;32;20196;-60
2023/06/29 07:49:13;;;;;;;0.53;0.53;;;;;;;21.95;51.99;95430.03;4347173;32;20198;-60
2023/06/29 07:51:44;;;;;;;0.20;0.20;;;;;;;21.94;49.85;95421.13;4337018;32;20231;-60
2023/06/29 07:54:10;;;;;;;0.30;0.30;;;;;;;21.97;51.11;95429.66;4357142;32;20197;-60
2023/06/29 07:56:38;;;;;;;0.33;0.30;;;;;;;22.00;51.40;95416.22;4350319;32;20185;-60
2023/06/29 07:59:04;;;;;;;0.67;0.67;;;;;;;22.00;50.01;95416.22;4314260;32;20252;-60
2023/06/29 08:01:37;;;;;;;0.30;0.30;;;;;;;22.03;50.84;95414.72;4357801;32;20205;-60
2023/06/29 08:04:04;;;;;;;0.40;0.40;;;;;;;22.05;51.28;95418.59;4345522;32;20251;-60
2023/06/29 08:06:33;;;;;;;0.23;0.23;;;;;;;22.09;50.43;95418.66;4360045;32;20192;-60
2023/06/29 08:09:00;;;;;;;0.50;0.50;;;;;;;22.16;48.29;95413.37;4358319;32;20185;-60
2023/06/29 08:11:27;;;;;;;0.20;0.20;;;;;;;22.16;47.54;95422.25;4357774;32;20211;-60
2023/06/29 08:13:54;;;;;;;0.43;0.40;;;;;;;22.24;46.46;95426.59;4317699;32;20197;-60
2023/06/29 08:16:21;;;;;;;0.60;0.60;;;;;;;22.28;44.34;95421.25;4330808;32;20239;-60
2023/06/29 08:18:48;;;;;;;1.17;0.80;;;;;;;22.34;43.43;95419.00;4329226;32;20284;-60
2023/06/29 08:21:17;;;;;;;0.40;0.40;;;;;;;22.32;43.99;95421.28;4336563;32;20204;-60
2023/06/29 08:23:43;;;;;;;0.20;0.20;;;;;;;22.31;41.38;95425.94;4293919;32;20209;-60
2023/06/29 08:26:08;;;;;;;0.37;0.37;;;;;;;22.28;42.21;95423.94;4330946;32;20258;-60
2023/06/29 08:28:35;;;;;;;0.30;0.30;;;;;;;22.29;45.52;95414.69;4326489;32;20201;-60
2023/06/29 08:31:02;;;;;;;0.20;0.20;;;;;;;22.24;44.18;95415.00;4331795;32;20224;-60
2023/06/29 08:33:27;;;;;;;0.40;0.40;;;;;;;22.29;42.64;95412.78;4351424;32;20180;-60
2023/06/29 08:35:52;;;;;;;0.50;0.50;;;;;;;22.37;41.75;95405.53;4349496;32;20191;-60
2023/06/29 08:38:19;;;;;;;0.67;0.67;;;;;;;22.34;45.18;95400.88;4338573;32;20203;-60
2023/06/29 08:40:48;;;;;;;0.20;0.20;;;;;;;22.34;45.59;95400.09;4302231;32;20236;-60
2023/06/29 08:43:19;;;;;;;0.30;0.30;;;;;;;22.36;44.40;95401.28;4348083;32;20232;-60
2023/06/29 08:45:45;;;;;;;0.67;0.67;;;;;;;22.36;46.12;95387.75;4331486;32;20197;-60
2023/06/29 08:48:16;;;;;;;1.37;0.77;;;;;;;22.39;46.08;95397.06;4303524;32;20190;-60
2023/06/29 08:50:56;;;;;;;2.43;0.60;;;;;;;22.40;45.95;95391.28;4301356;32;20198;-60
2023/06/29 08:53:25;;;;;;;0.30;0.30;;;;;;;22.43;44.68;95387.88;4312857;32;20190;-60
2023/06/29 08:55:52;;;;;;;0.73;0.73;;;;;;;22.51;43.09;95388.72;4327835;32;20272;-60
2023/06/29 08:58:22;;;;;;;0.50;0.50;;;;;;;22.60;42.60;95389.22;4341281;32;20338;-59
2023/06/29 09:01:00;;;;;;;0.40;0.40;;;;;;;22.69;42.70;95386.22;4357235;32;20243;-60
2023/06/29 09:03:28;;;;;;;0.40;0.40;;;;;;;22.73;42.98;95385.13;4317145;32;20194;-60
2023/06/29 09:05:56;;;;;;;0.50;0.50;;;;;;;22.74;43.16;95375.06;4316628;32;20241;-60
2023/06/29 09:08:23;;;;;;;2.70;0.67;;;;;;;22.72;43.13;95374.66;4320968;32;20197;-60
2023/06/29 09:10:51;;;;;;;0.47;0.47;;;;;;;22.74;41.91;95377.78;4332678;32;20193;-60
2023/06/29 09:13:16;;;;;;;0.43;0.43;;;;;;;22.77;42.68;95374.34;4291924;32;20226;-60
2023/06/29 09:15:48;;;;;;;0.20;0.20;;;;;;;22.74;42.92;95375.06;4325407;32;20200;-60
2023/06/29 09:18:17;;;;;;;0.47;0.47;;;;;;;22.80;40.53;95376.34;4325312;32;20288;-60
2023/06/29 09:20:44;;;;;;;0.40;0.40;;;;;;;22.94;40.87;95373.78;4323942;32;20186;-60
2023/06/29 09:23:12;;;;;;;0.33;0.33;;;;;;;22.82;43.62;95365.94;4319247;32;20212;-60
2023/06/29 09:25:39;;;;;;;0.30;0.30;;;;;;;22.80;41.98;95366.28;4302671;33;20268;-60
2023/06/29 09:28:12;;;;;;;0.50;0.50;;;;;;;22.78;43.05;95352.34;4322892;32;20221;-60
2023/06/29 09:30:40;;;;;;;2.10;0.50;;;;;;;22.95;40.40;95356.38;4301366;32;20206;-60
2023/06/29 09:33:15;;;;;;;0.20;0.20;;;;;;;22.85;42.10;95351.66;4284418;32;20225;-60
2023/06/29 09:35:49;;;;;;;0.37;0.37;;;;;;;22.91;42.26;95355.56;4299505;32;20235;-60
2023/06/29 09:38:20;;;;;;;0.30;0.30;;;;;;;22.95;40.92;95350.97;4312900;32;20202;-60
2023/06/29 09:40:57;;;;;;;0.60;0.60;;;;;;;22.93;41.62;95353.28;4331118;32;20197;-60
2023/06/29 09:43:31;;;;;;;2.07;0.87;;;;;;;23.04;41.17;95342.56;4320101;32;20217;-60
2023/06/29 09:46:08;;;;;;;0.67;0.50;;;;;;;23.19;40.91;95350.44;4317098;32;20194;-60
2023/06/29 09:48:47;;;;;;;0.40;0.40;;;;;;;23.20;40.99;95345.81;4322744;32;20295;-60
2023/06/29 09:51:23;;;;;;;0.50;0.50;;;;;;;23.22;40.02;95340.78;4315122;32;20186;-60
2023/06/29 09:53:49;;;;;;;0.40;0.40;;;;;;;23.16;40.41;95351.19;4296647;33;20216;-60
2023/06/29 09:56:16;;;;;;;1.60;0.67;;;;;;;23.06;42.20;95345.69;4277900;32;20197;-60
2023/06/29 09:58:43;;;;;;;0.33;0.33;;;;;;;23.33;40.20;95340.88;4304488;32;20236;-60
2023/06/29 10:01:10;;;;;;;0.73;0.73;;;;;;;23.34;40.86;95335.09;4323460;32;20213;-60
2023/06/29 10:03:38;;;;;;;0.47;0.40;;;;;;;23.40;41.51;95347.12;4280633;32;20210;-60
2023/06/29 10:06:11;;;;;;;0.30;0.30;;;;;;;23.36;40.55;95332.78;4343912;32;20240;-60
2023/06/29 10:08:40;;;;;;;0.10;0.10;;;;;;;23.42;39.88;95327.81;4329516;32;20201;-60
2023/06/29 10:11:10;;;;;;;0.60;0.60;;;;;;;23.39;41.28;95317.72;4312262;32;20204;-60
2023/06/29 10:13:46;;;;;;;2.43;0.87;;;;;;;23.63;38.81;95328.00;4315019;32;20193;-60
2023/06/29 10:16:17;;;;;;;0.90;0.90;;;;;;;23.71;38.40;95329.56;4326444;32;20295;-60
2023/06/29 10:18:47;;;;;;;0.30;0.30;;;;;;;23.67;39.91;95326.09;4346220;32;20189;-60
2023/06/29 10:21:15;;;;;;;0.63;0.63;;;;;;;23.64;40.62;95327.63;4331996;32;20242;-60
2023/06/29 10:23:42;;;;;;;1.10;0.40;;;;;;;23.58;41.04;95320.22;4316268;32;20208;-60
2023/06/29 10:26:14;;;;;;;0.10;0.10;;;;;;;23.68;39.37;95318.75;4349308;32;20185;-60
2023/06/29 10:28:41;;;;;;;0.30;0.30;;;;;;;23.66;40.80;95311.00;4304643;32;20252;-60
2023/06/29 10:31:08;;;;;;;0.23;0.23;;;;;;;23.76;39.39;95317.62;4324440;32;20251;-60
2023/06/29 10:33:51;;;;;;;0.47;0.20;;;;;;;23.69;41.61;95314.88;4323809;32;20251;-60
2023/06/29 10:36:18;;;;;;;0.40;0.40;;;;;;;23.62;40.60;95312.87;4326807;32;20192;-60
2023/06/29 10:38:46;;;;;;;0.77;0.77;;;;;;;23.54;42.79;95303.16;4344716;32;20286;-60
2023/06/29 10:41:28;;;;;;;0.47;0.47;;;;;;;23.64;38.65;95305.94;4355741;32;20247;-60
2023/06/29 10:44:05;;;;;;;0.50;0.47;;;;;;;23.68;40.65;95303.25;4358149;32;20207;-60
2023/06/29 10:46:49;;;;;;;1.70;1.03;;;;;;;23.60;41.57;95297.00;4320956;32;20192;-60
2023/06/29 10:49:28;;;;;;;0.60;0.60;;;;;;;23.75;39.18;95303.28;4324047;32;20193;-60
2023/06/29 10:52:07;;;;;;;0.40;0.40;;;;;;;23.77;39.60;95303.69;4358743;32;20189;-60
2023/06/29 10:54:33;;;;;;;2.13;0.97;;;;;;;23.79;39.77;95287.84;4353252;32;20193;-60
2023/06/29 10:57:07;;;;;;;0.40;0.40;;;;;;;23.92;38.33;95297.19;4316093;32;20197;-60
2023/06/29 10:59:36;;;;;;;0.30;0.30;;;;;;;23.92;39.05;95299.91;4343669;32;20232;-60
2023/06/29 11:02:12;;;;;;;0.50;0.50;;;;;;;23.81;39.24;95288.22;4336411;32;20208;-60
2023/06/29 11:04:40;;;;;;;0.20;0.20;;;;;;;23.79;40.29;95295.19;4341370;32;20209;-60
2023/06/29 11:07:09;;;;;;;0.47;0.47;;;;;;;23.85;38.53;95288.25;4340857;32;20205;-60
2023/06/29 11:09:36;;;;;;;0.57;0.57;;;;;;;23.89;38.75;95281.72;4350660;32;20193;-60
2023/06/29 11:12:04;;;;;;;0.30;0.30;;;;;;;24.04;37.91;95282.53;4352497;32;20204;-60
2023/06/29 11:14:36;;;;;;;0.53;0.53;;;;;;;23.98;38.15;95282.13;4329734;32;20185;-60
2023/06/29 11:17:15;;;;;;;0.40;0.40;;;;;;;24.08;39.12;95291.47;4343474;32;20296;-60
2023/06/29 11:19:49;;;;;;;0.30;0.30;;;;;;;24.02;37.85;95292.22;4339447;32;20208;-60
2023/06/29 11:22:19;;;;;;;0.20;0.20;;;;;;;23.87;40.76;95289.44;4327129;32;20219;-60
2023/06/29 11:24:46;;;;;;;0.30;0.30;;;;;;;23.86;39.57;95285.16;4281726;33;20198;-60
2023/06/29 11:27:15;;;;;;;0.57;0.57;;;;;;;23.79;40.24;95278.94;4331172;32;20201;-60
2023/06/29 11:29:43;;;;;;;0.20;0.20;;;;;;;23.74;40.58;95276.56;4334012;32;20201;-60
2023/06/29 11:32:20;;;;;;;1.93;0.67;;;;;;;23.68;40.97;95273.47;4337213;32;20238;-60
2023/06/29 11:34:46;;;;;;;0.40;0.40;;;;;;;23.70;41.92;95267.63;4343284;32;20247;-60
2023/06/29 11:37:13;;;;;;;0.30;0.30;;;;;;;23.70;40.25;95267.63;4306168;32;20202;-60
2023/06/29 11:39:40;;;;;;;0.57;0.57;;;;;;;23.75;39.89;95267.28;4338375;32;20252;-60